Time;durP1;ratioP1;P1;durP2;ratioP2;P2;SDS_P1;SDS_P2;PMS_P1;PMS_P2;Temp;Humidity;BMP_temperature;BMP_pressure;BME280_temperature;BME280_humidity;BME280_pressure;Samples;Min_cycle;Max_cycle;Signal;HPM_P1;HPM_P2
2024/01/01 00:03:43;;;;;;;8.52;6.35;;;;;;;;;;10573136;28;20027;-64
2024/01/01 00:08:44;;;;;;;10.88;5.75;;;;;;;;;;10576921;28;20383;-64
2024/01/01 00:13:44;;;;;;;12.15;5.78;;;;;;;;;;10579912;28;20038;-63
2024/01/01 00:18:45;;;;;;;10.52;5.93;;;;;;;;;;10580516;28;20023;-64
2024/01/01 00:23:46;;;;;;;11.30;6.03;;;;;;;;;;10578668;28;20027;-64
2024/01/01 00:28:46;;;;;;;7.78;5.72;;;;;;;;;;10579591;28;20023;-64
2024/01/01 00:33:47;;;;;;;10.65;5.97;;;;;;;;;;10561368;28;20072;-64
2024/01/01 00:38:48;;;;;;;7.35;5.75;;;;;;;;;;10579458;28;20164;-64
2024/01/01 00:43:49;;;;;;;9.80;5.40;;;;;;;;;;10580010;28;20031;-64
2024/01/01 00:48:50;;;;;;;9.60;5.97;;;;;;;;;;10579918;28;20024;-64
2024/01/01 00:53:52;;;;;;;11.07;5.63;;;;;;;;;;10578991;28;20054;-63
2024/01/01 00:58:52;;;;;;;14.52;5.78;;;;;;;;;;10577798;28;20432;-65
2024/01/01 01:03:53;;;;;;;16.88;4.88;;;;;;;;;;10578769;28;20088;-65
2024/01/01 01:08:54;;;;;;;8.90;5.68;;;;;;;;;;10578580;28;20028;-70
2024/01/01 01:13:56;;;;;;;20.92;5.32;;;;;;;;;;10578357;28;20316;-73
2024/01/01 01:18:56;;;;;;;8.00;5.28;;;;;;;;;;10578071;28;20485;-73
2024/01/01 01:23:58;;;;;;;11.15;5.00;;;;;;;;;;10577203;28;20072;-73
2024/01/01 01:28:58;;;;;;;13.43;5.30;;;;;;;;;;10577570;28;20043;-69
2024/01/01 01:33:59;;;;;;;9.55;5.53;;;;;;;;;;10578024;28;20023;-68
2024/01/01 01:39:00;;;;;;;9.40;5.25;;;;;;;;;;10578236;28;20026;-68
2024/01/01 01:44:00;;;;;;;7.38;4.75;;;;;;;;;;10576779;28;20023;-68
2024/01/01 01:49:01;;;;;;;8.23;5.20;;;;;;;;;;10577044;28;20091;-69
2024/01/01 01:54:02;;;;;;;10.40;4.57;;;;;;;;;;10558254;28;20073;-66
2024/01/01 01:59:03;;;;;;;9.40;5.50;;;;;;;;;;10578186;22;20056;-60
2024/01/01 02:04:04;;;;;;;15.88;4.78;;;;;;;;;;10533935;28;20035;-60
2024/01/01 02:09:04;;;;;;;7.95;4.80;;;;;;;;;;10534528;28;20028;-60
2024/01/01 02:14:13;;;;;;;7.43;4.65;;;;;;;;;;10534906;28;20028;-60
2024/01/01 02:19:28;;;;;;;7.70;4.90;;;;;;;;;;10557699;28;20033;-59
2024/01/01 02:24:29;;;;;;;8.40;4.88;;;;;;;;;;10576652;28;20027;-59
2024/01/01 02:29:30;;;;;;;6.90;5.13;;;;;;;;;;10573217;28;20432;-60
2024/01/01 02:34:30;;;;;;;9.63;4.80;;;;;;;;;;10575824;28;20077;-59
2024/01/01 02:39:31;;;;;;;5.97;4.40;;;;;;;;;;10575123;28;20042;-59
2024/01/01 02:44:31;;;;;;;7.43;5.03;;;;;;;;;;10574873;28;20031;-59
2024/01/01 02:49:33;;;;;;;6.20;4.22;;;;;;;;;;10574021;28;20374;-59
2024/01/01 02:54:33;;;;;;;5.05;4.53;;;;;;;;;;10573895;28;20027;-59
2024/01/01 02:59:34;;;;;;;5.90;4.70;;;;;;;;;;10574598;28;20510;-59
2024/01/01 03:04:34;;;;;;;7.88;4.53;;;;;;;;;;10575198;28;20470;-60
2024/01/01 03:09:35;;;;;;;6.72;4.30;;;;;;;;;;10574563;28;20038;-59
2024/01/01 03:14:35;;;;;;;5.28;4.55;;;;;;;;;;10574161;28;20024;-58
2024/01/01 03:19:36;;;;;;;6.90;4.93;;;;;;;;;;10574898;28;20020;-59
2024/01/01 03:24:37;;;;;;;6.45;4.13;;;;;;;;;;10574410;28;20054;-58
2024/01/01 03:29:37;;;;;;;7.28;4.38;;;;;;;;;;10573326;28;20028;-57
2024/01/01 03:34:39;;;;;;;7.05;4.10;;;;;;;;;;10573488;28;20031;-57
2024/01/01 03:39:39;;;;;;;5.43;4.68;;;;;;;;;;10573514;28;20035;-58
2024/01/01 03:44:40;;;;;;;5.18;3.90;;;;;;;;;;10582439;28;20088;-58
2024/01/01 03:49:41;;;;;;;5.38;4.05;;;;;;;;;;10582147;28;20386;-59
2024/01/01 03:54:41;;;;;;;5.68;4.45;;;;;;;;;;10581683;28;20102;-58
2024/01/01 03:59:42;;;;;;;5.35;4.20;;;;;;;;;;10581452;28;20063;-59
2024/01/01 04:04:46;;;;;;;5.82;3.85;;;;;;;;;;10581346;28;20035;-58
2024/01/01 04:09:46;;;;;;;5.05;3.70;;;;;;;;;;10580112;28;20083;-57
2024/01/01 04:14:47;;;;;;;5.78;4.15;;;;;;;;;;10581384;28;20034;-59
2024/01/01 04:19:48;;;;;;;10.18;4.10;;;;;;;;;;10581191;28;20068;-59
2024/01/01 04:24:48;;;;;;;3.90;3.50;;;;;;;;;;10581351;28;20027;-59
2024/01/01 04:29:49;;;;;;;6.45;4.40;;;;;;;;;;10580942;28;20032;-58
2024/01/01 04:34:49;;;;;;;4.22;3.83;;;;;;;;;;10580357;28;20068;-58
2024/01/01 04:39:50;;;;;;;4.78;3.80;;;;;;;;;;10580363;28;20028;-58
2024/01/01 04:44:52;;;;;;;4.72;3.92;;;;;;;;;;10580061;28;20200;-58
2024/01/01 04:50:13;;;;;;;7.22;4.25;;;;;;;;;;10579985;28;20266;-59
2024/01/01 04:55:13;;;;;;;4.93;3.75;;;;;;;;;;10488629;28;20033;-59
2024/01/01 05:00:15;;;;;;;4.75;3.53;;;;;;;;;;10469087;28;20036;-60
2024/01/01 05:05:15;;;;;;;5.63;3.80;;;;;;;;;;10446897;28;20507;-60
2024/01/01 05:10:16;;;;;;;5.88;3.75;;;;;;;;;;10447249;28;20033;-60
2024/01/01 05:15:16;;;;;;;5.53;3.50;;;;;;;;;;10446923;28;20033;-60
2024/01/01 05:20:17;;;;;;;8.27;3.50;;;;;;;;;;10446983;28;20036;-60
2024/01/01 05:25:18;;;;;;;4.35;3.95;;;;;;;;;;10446808;28;20127;-60
2024/01/01 05:30:19;;;;;;;5.75;4.38;;;;;;;;;;10477748;28;20040;-59
2024/01/01 05:35:19;;;;;;;4.97;3.75;;;;;;;;;;10557050;28;20023;-60
2024/01/01 05:40:20;;;;;;;4.28;3.80;;;;;;;;;;10577834;28;20486;-59
2024/01/01 05:45:20;;;;;;;3.83;3.20;;;;;;;;;;10577071;28;20462;-59
2024/01/01 05:50:21;;;;;;;3.92;3.22;;;;;;;;;;10577204;28;20024;-60
2024/01/01 05:55:22;;;;;;;5.47;3.90;;;;;;;;;;10577169;28;20042;-60
2024/01/01 06:00:24;;;;;;;7.20;4.22;;;;;;;;;;10576894;28;20047;-59
2024/01/01 06:05:25;;;;;;;4.22;3.60;;;;;;;;;;10575717;28;20438;-59
2024/01/01 06:10:26;;;;;;;6.72;4.15;;;;;;;;;;10576772;28;20042;-59
2024/01/01 06:15:27;;;;;;;5.18;3.78;;;;;;;;;;10576908;28;20057;-59
2024/01/01 06:20:28;;;;;;;6.10;4.07;;;;;;;;;;10576760;28;20370;-59
2024/01/01 06:25:28;;;;;;;4.07;3.50;;;;;;;;;;10575648;28;20170;-58
2024/01/01 06:30:30;;;;;;;7.75;3.55;;;;;;;;;;10574605;28;20130;-59
2024/01/01 06:35:31;;;;;;;3.85;3.40;;;;;;;;;;10574003;28;20028;-59
2024/01/01 06:40:31;;;;;;;4.03;3.58;;;;;;;;;;10575597;28;20451;-59
2024/01/01 06:45:32;;;;;;;3.97;3.38;;;;;;;;;;10574555;28;20032;-59
2024/01/01 06:50:33;;;;;;;5.50;3.45;;;;;;;;;;10574823;28;20382;-58
2024/01/01 06:55:34;;;;;;;5.30;3.50;;;;;;;;;;10575116;28;20413;-58
2024/01/01 07:00:34;;;;;;;3.45;2.85;;;;;;;;;;10574339;28;20479;-59
2024/01/01 07:05:35;;;;;;;8.40;3.40;;;;;;;;;;10574198;28;20301;-59
2024/01/01 07:10:35;;;;;;;3.72;3.30;;;;;;;;;;10574091;28;20024;-59
2024/01/01 07:15:36;;;;;;;7.78;3.20;;;;;;;;;;10574014;28;20028;-60
2024/01/01 07:20:37;;;;;;;3.38;3.05;;;;;;;;;;10573523;28;20094;-59
2024/01/01 07:25:37;;;;;;;4.05;3.42;;;;;;;;;;10573818;28;20114;-60
2024/01/01 07:30:38;;;;;;;3.42;3.10;;;;;;;;;;10573760;28;20023;-60
2024/01/01 07:35:39;;;;;;;4.25;3.45;;;;;;;;;;10573588;28;20023;-60
2024/01/01 07:40:40;;;;;;;3.80;3.13;;;;;;;;;;10573947;28;20027;-60
2024/01/01 07:45:41;;;;;;;4.60;3.33;;;;;;;;;;10574131;28;20039;-59
2024/01/01 07:50:42;;;;;;;3.22;2.92;;;;;;;;;;10573727;28;20028;-59
2024/01/01 07:55:42;;;;;;;4.25;2.88;;;;;;;;;;10573237;28;20024;-59
2024/01/01 08:00:43;;;;;;;5.47;3.30;;;;;;;;;;10573458;28;20051;-59
2024/01/01 08:05:44;;;;;;;4.75;3.15;;;;;;;;;;10573386;28;20459;-58
2024/01/01 08:10:44;;;;;;;3.65;3.15;;;;;;;;;;10573786;28;20023;-59
2024/01/01 08:15:45;;;;;;;4.38;3.28;;;;;;;;;;10573530;28;20363;-59
2024/01/01 08:20:45;;;;;;;4.35;2.85;;;;;;;;;;10571671;28;20027;-59
2024/01/01 08:25:46;;;;;;;4.00;3.10;;;;;;;;;;10573111;28;20077;-60
2024/01/01 08:30:48;;;;;;;3.28;2.97;;;;;;;;;;10579446;28;20019;-60
2024/01/01 08:35:53;;;;;;;3.35;2.80;;;;;;;;;;10580457;28;20019;-60
2024/01/01 08:40:53;;;;;;;4.50;3.05;;;;;;;;;;10579404;28;20034;-59
2024/01/01 08:45:54;;;;;;;4.15;2.50;;;;;;;;;;10580066;28;20028;-60
2024/01/01 08:50:54;;;;;;;5.38;3.00;;;;;;;;;;10580116;28;20022;-60
2024/01/01 08:55:55;;;;;;;3.67;2.70;;;;;;;;;;10579550;28;20031;-60
2024/01/01 09:00:56;;;;;;;7.72;3.15;;;;;;;;;;10578856;28;20063;-60
2024/01/01 09:05:58;;;;;;;3.00;2.53;;;;;;;;;;10578780;28;20024;-60
2024/01/01 09:10:58;;;;;;;6.65;3.45;;;;;;;;;;10578921;28;20037;-60
2024/01/01 09:15:59;;;;;;;13.32;3.78;;;;;;;;;;10578467;28;20024;-59
2024/01/01 09:20:59;;;;;;;5.18;3.90;;;;;;;;;;10578411;28;20020;-59
2024/01/01 09:26:00;;;;;;;5.95;3.92;;;;;;;;;;10577600;28;20028;-59
2024/01/01 09:31:00;;;;;;;9.30;4.10;;;;;;;;;;10577071;28;20016;-62
2024/01/01 09:36:02;;;;;;;5.90;4.28;;;;;;;;;;10577613;28;20034;-61
2024/01/01 09:41:03;;;;;;;6.63;4.10;;;;;;;;;;10576479;28;20118;-63
2024/01/01 09:46:05;;;;;;;5.38;4.20;;;;;;;;;;10576919;28;20463;-64
2024/01/01 09:51:05;;;;;;;6.45;4.20;;;;;;;;;;10575655;28;20031;-64
2024/01/01 09:56:06;;;;;;;8.40;4.18;;;;;;;;;;10575082;28;20024;-63
2024/01/01 10:01:24;;;;;;;10.60;3.97;;;;;;;;;;10576939;28;20092;-62
2024/01/01 10:06:24;;;;;;;6.00;4.13;;;;;;;;;;10577135;28;20344;-62
2024/01/01 10:11:25;;;;;;;5.10;4.28;;;;;;;;;;10576286;28;20476;-62
2024/01/01 10:16:26;;;;;;;6.10;4.18;;;;;;;;;;10575478;28;20036;-62
2024/01/01 10:21:30;;;;;;;4.93;4.05;;;;;;;;;;10575223;28;20474;-62
2024/01/01 10:26:39;;;;;;;12.90;4.20;;;;;;;;;;10575202;28;20501;-62
2024/01/01 10:58:31;;;;;;;7.85;4.13;;;;;;;;;;10414829;27;20662;-64
2024/01/01 11:03:33;;;;;;;8.40;4.07;;;;;;;;;;10426116;28;20064;-64
2024/01/01 11:08:34;;;;;;;5.35;3.90;;;;;;;;;;10411194;28;20034;-65
2024/01/01 11:13:34;;;;;;;12.98;4.78;;;;;;;;;;10425068;28;20030;-64
2024/01/01 11:18:40;;;;;;;16.70;4.57;;;;;;;;;;10411795;28;21557;-65
2024/01/01 11:23:41;;;;;;;5.97;4.00;;;;;;;;;;10418025;28;20041;-64
2024/01/01 11:28:41;;;;;;;6.28;4.10;;;;;;;;;;10419009;28;20033;-65
2024/01/01 11:48:41;;;;;;;12.82;5.30;;;;;;;;;;10447049;27;20654;-64
2024/01/01 11:53:41;;;;;;;13.35;4.88;;;;;;;;;;10456976;28;20031;-62
2024/01/01 11:58:42;;;;;;;7.28;4.43;;;;;;;;;;10478001;28;20039;-64
2024/01/01 12:03:43;;;;;;;10.85;4.32;;;;;;;;;;10466656;28;20025;-63
2024/01/01 12:08:44;;;;;;;11.35;4.55;;;;;;;;;;10467495;28;20026;-64
2024/01/01 12:13:55;;;;;;;6.13;4.18;;;;;;;;;;10447510;28;20032;-64
2024/01/01 12:19:19;;;;;;;10.77;4.40;;;;;;;;;;10453136;28;20392;-64
2024/01/01 12:24:20;;;;;;;13.95;4.10;;;;;;;;;;10451282;28;20668;-64
2024/01/01 12:29:21;;;;;;;8.48;4.50;;;;;;;;;;10452324;28;20169;-63
2024/01/01 12:34:21;;;;;;;6.15;4.28;;;;;;;;;;10458694;28;20500;-64
2024/01/01 12:39:22;;;;;;;7.50;4.25;;;;;;;;;;10452114;28;20040;-65
2024/01/01 12:44:23;;;;;;;6.55;3.95;;;;;;;;;;10450490;28;20048;-63
2024/01/01 12:49:24;;;;;;;13.25;4.30;;;;;;;;;;10427593;28;20037;-64
2024/01/01 12:54:24;;;;;;;7.80;3.95;;;;;;;;;;10441329;28;20037;-64
2024/01/01 12:59:25;;;;;;;5.28;4.53;;;;;;;;;;10418566;28;20029;-64
2024/01/01 13:04:26;;;;;;;7.15;3.65;;;;;;;;;;10414747;28;20048;-63
2024/01/01 13:09:26;;;;;;;5.38;4.07;;;;;;;;;;10439828;28;20028;-64
2024/01/01 13:14:27;;;;;;;7.97;4.85;;;;;;;;;;10423029;28;20358;-64
2024/01/01 13:19:27;;;;;;;6.53;3.83;;;;;;;;;;10437895;28;20388;-66
2024/01/01 13:24:28;;;;;;;4.25;3.70;;;;;;;;;;10435227;28;20029;-64
2024/01/01 13:29:28;;;;;;;10.88;4.00;;;;;;;;;;10438492;28;20048;-64
2024/01/01 13:34:29;;;;;;;5.43;3.45;;;;;;;;;;10422621;28;20382;-64
2024/01/01 13:39:31;;;;;;;4.25;3.35;;;;;;;;;;10436399;28;20040;-64
2024/01/01 13:44:32;;;;;;;6.95;3.88;;;;;;;;;;10416315;28;20033;-65
2024/01/01 13:49:35;;;;;;;6.00;3.70;;;;;;;;;;10427879;28;20045;-65
2024/01/01 13:54:36;;;;;;;5.80;3.83;;;;;;;;;;10436710;28;20037;-66
2024/01/01 13:59:37;;;;;;;7.90;3.58;;;;;;;;;;10428147;28;20032;-66
2024/01/01 14:04:40;;;;;;;13.55;4.20;;;;;;;;;;10441015;28;20098;-66
2024/01/01 14:09:41;;;;;;;5.75;3.50;;;;;;;;;;10443232;28;20063;-66
2024/01/01 14:14:44;;;;;;;6.63;3.97;;;;;;;;;;10437250;28;20029;-67
2024/01/01 14:19:44;;;;;;;5.63;3.92;;;;;;;;;;10416069;28;20034;-66
2024/01/01 14:24:45;;;;;;;7.15;4.05;;;;;;;;;;10420988;28;20036;-66
2024/01/01 14:29:46;;;;;;;7.82;3.63;;;;;;;;;;10416439;28;20025;-66
2024/01/01 14:34:47;;;;;;;10.35;4.63;;;;;;;;;;10428172;28;20090;-67
2024/01/01 14:39:48;;;;;;;6.78;4.10;;;;;;;;;;10428611;28;20559;-74
2024/01/01 14:44:48;;;;;;;7.78;3.80;;;;;;;;;;10433558;28;20294;-66
2024/01/01 14:49:49;;;;;;;9.07;4.05;;;;;;;;;;10446852;28;20024;-66
2024/01/01 14:54:50;;;;;;;8.65;4.13;;;;;;;;;;10426656;28;20048;-66
2024/01/01 14:59:50;;;;;;;12.30;4.05;;;;;;;;;;10427568;28;20025;-65
2024/01/01 15:04:54;;;;;;;12.15;4.18;;;;;;;;;;10422945;28;20020;-64
2024/01/01 15:09:54;;;;;;;9.73;4.53;;;;;;;;;;10427953;28;20432;-64
2024/01/01 15:14:55;;;;;;;14.35;4.78;;;;;;;;;;10431112;28;20027;-67
